Time;durP1;ratioP1;P1;durP2;ratioP2;P2;SDS_P1;SDS_P2;PMS_P1;PMS_P2;Temp;Humidity;BMP_temperature;BMP_pressure;BME280_temperature;BME280_humidity;BME280_pressure;Samples;Min_cycle;Max_cycle;Signal;HPM_P1;HPM_P2
2021/09/06 00:04:45;;;;;;;22.53;17.27;;;;;14.20;101705.00;;;;12874349;22;20194;-79
2021/09/06 00:09:53;;;;;;;26.20;18.73;;;;;14.20;101696.00;;;;12898314;22;20169;-80
2021/09/06 00:14:54;;;;;;;30.93;19.27;;;;;14.20;101699.00;;;;12874645;22;20186;-80
2021/09/06 00:19:56;;;;;;;24.40;18.50;;;;;14.10;101699.00;;;;12899119;22;20185;-80
2021/09/06 00:24:57;;;;;;;27.07;18.00;;;;;14.10;101701.00;;;;12848798;22;20710;-80
2021/09/06 00:29:58;;;;;;;22.63;17.77;;;;;14.10;101695.00;;;;12850692;22;20209;-80
2021/09/06 00:34:59;;;;;;;26.90;18.30;;;;;14.00;101685.00;;;;12874449;22;20177;-80
2021/09/06 00:40:02;;;;;;;28.97;17.80;;;;;13.90;101687.00;;;;12873103;22;20170;-80
2021/09/06 00:45:05;;;;;;;27.43;18.27;;;;;13.90;101686.00;;;;12896434;22;20787;-79
2021/09/06 00:50:12;;;;;;;26.10;18.30;;;;;13.80;101695.00;;;;12874454;22;20170;-80
2021/09/06 00:55:15;;;;;;;26.63;18.47;;;;;13.70;101696.00;;;;12874385;22;20169;-79
2021/09/06 01:00:18;;;;;;;23.30;16.67;;;;;13.70;101713.00;;;;12874524;22;20173;-80
2021/09/06 01:05:20;;;;;;;23.53;17.17;;;;;13.60;101711.00;;;;12873177;22;20194;-80
2021/09/06 01:10:41;;;;;;;27.83;17.90;;;;;13.50;101721.00;;;;12878584;22;20232;-80
2021/09/06 01:16:03;;;;;;;27.00;18.00;;;;;13.50;101718.00;;;;12873129;22;20279;-79
2021/09/06 01:21:04;;;;;;;27.87;18.73;;;;;13.40;101722.00;;;;12875098;22;20228;-80
2021/09/06 01:26:25;;;;;;;25.83;19.03;;;;;13.40;101720.00;;;;12893994;22;20201;-79
2021/09/06 01:31:27;;;;;;;23.80;18.07;;;;;13.30;101724.00;;;;12897611;22;20601;-79
2021/09/06 01:36:28;;;;;;;29.93;19.40;;;;;13.30;101724.00;;;;12900041;22;20181;-79
2021/09/06 01:41:34;;;;;;;26.47;19.67;;;;;13.30;101732.00;;;;12877298;22;20192;-79
2021/09/06 01:46:39;;;;;;;27.37;18.57;;;;;13.30;101724.00;;;;12852660;22;20197;-80
2021/09/06 01:51:40;;;;;;;25.50;17.80;;;;;13.20;101728.00;;;;12875584;22;20181;-79
2021/09/06 01:56:42;;;;;;;24.33;16.97;;;;;13.20;101737.00;;;;12852106;22;20181;-80
2021/09/06 02:01:47;;;;;;;25.50;18.97;;;;;13.20;101732.00;;;;12876638;22;20307;-79
2021/09/06 02:06:50;;;;;;;26.80;18.43;;;;;13.20;101718.00;;;;12876626;22;20281;-80
2021/09/06 02:11:51;;;;;;;25.60;17.73;;;;;13.10;101716.00;;;;12874796;22;20184;-80
2021/09/06 02:16:52;;;;;;;26.77;18.67;;;;;13.10;101725.00;;;;12876031;22;20429;-80
2021/09/06 02:22:06;;;;;;;26.83;18.67;;;;;13.00;101715.00;;;;12900167;22;20185;-80
2021/09/06 02:27:22;;;;;;;29.70;19.43;;;;;12.90;101715.00;;;;12878683;22;20272;-80
2021/09/06 02:32:25;;;;;;;30.50;18.83;;;;;12.90;101709.00;;;;12875416;22;20260;-80
2021/09/06 02:37:58;;;;;;;29.50;20.23;;;;;12.80;101715.00;;;;12858669;22;20170;-79
2021/09/06 02:43:00;;;;;;;26.13;18.77;;;;;12.80;101712.00;;;;12851485;22;20173;-79
2021/09/06 02:48:02;;;;;;;29.20;19.67;;;;;12.70;101715.00;;;;12851592;22;20193;-79
2021/09/06 02:53:05;;;;;;;27.27;18.90;;;;;12.70;101734.00;;;;12901849;22;20177;-80
2021/09/06 02:58:07;;;;;;;24.80;16.97;;;;;12.60;101729.00;;;;12877050;22;20193;-80
2021/09/06 03:03:09;;;;;;;33.33;20.63;;;;;12.50;101718.00;;;;12877086;22;20169;-80
2021/09/06 03:08:10;;;;;;;30.57;21.43;;;;;12.50;101729.00;;;;12875569;22;20176;-79
2021/09/06 03:13:12;;;;;;;33.10;22.17;;;;;12.50;101724.00;;;;12875642;22;20169;-80
2021/09/06 03:18:17;;;;;;;34.37;20.93;;;;;12.50;101717.00;;;;12877026;22;20591;-80
2021/09/06 03:23:41;;;;;;;30.37;20.23;;;;;12.50;101733.00;;;;12914017;22;20189;-80
2021/09/06 03:28:43;;;;;;;30.93;20.10;;;;;12.40;101737.00;;;;12945525;22;20165;-80
2021/09/06 03:33:47;;;;;;;27.77;19.23;;;;;12.30;101726.00;;;;12901177;22;20316;-79
2021/09/06 03:38:50;;;;;;;29.53;20.07;;;;;12.30;101729.00;;;;12877339;22;20187;-80
2021/09/06 03:43:53;;;;;;;31.00;19.73;;;;;12.30;101721.00;;;;12852408;22;20232;-80
2021/09/06 03:48:54;;;;;;;29.00;19.33;;;;;12.20;101725.00;;;;12876569;22;20220;-79
2021/09/06 03:53:56;;;;;;;28.93;17.83;;;;;12.20;101732.00;;;;12901372;22;20165;-80
2021/09/06 03:58:59;;;;;;;29.23;20.30;;;;;12.10;101727.00;;;;12902594;22;20174;-79
2021/09/06 04:04:01;;;;;;;31.13;19.03;;;;;12.10;101735.00;;;;12852746;22;20799;-80
2021/09/06 04:09:03;;;;;;;25.90;18.27;;;;;12.00;101728.00;;;;12851673;22;20184;-80
2021/09/06 04:14:04;;;;;;;30.17;19.90;;;;;12.00;101739.00;;;;12923306;22;20170;-80
2021/09/06 04:19:08;;;;;;;30.27;20.70;;;;;12.00;101736.00;;;;12877691;22;20637;-80
2021/09/06 04:24:10;;;;;;;31.77;20.10;;;;;12.00;101721.00;;;;12877523;22;20197;-79
2021/09/06 04:29:11;;;;;;;31.00;20.43;;;;;12.00;101729.00;;;;12901198;22;20268;-80
2021/09/06 04:34:13;;;;;;;32.13;20.90;;;;;12.00;101724.00;;;;12876704;22;20498;-80
2021/09/06 04:39:14;;;;;;;36.47;21.63;;;;;12.00;101733.00;;;;12897193;22;20163;-79
2021/09/06 04:44:19;;;;;;;39.73;23.20;;;;;12.00;101740.00;;;;12871908;22;20214;-80
2021/09/06 04:49:22;;;;;;;37.50;23.30;;;;;12.00;101741.00;;;;12845270;22;20182;-79
2021/09/06 04:54:23;;;;;;;36.37;22.13;;;;;12.00;101749.00;;;;12875357;22;20178;-79
2021/09/06 04:59:26;;;;;;;34.53;22.60;;;;;11.90;101753.00;;;;12899958;22;20169;-79
2021/09/06 05:04:27;;;;;;;36.73;23.70;;;;;11.90;101763.00;;;;12851040;22;20196;-79
2021/09/06 05:09:29;;;;;;;41.73;23.13;;;;;11.80;101772.00;;;;12897561;22;20219;-79
2021/09/06 05:14:31;;;;;;;37.93;24.50;;;;;11.80;101770.00;;;;12902188;22;20176;-80
2021/09/06 05:19:32;;;;;;;40.20;23.33;;;;;11.80;101764.00;;;;12879264;22;20284;-80
2021/09/06 05:24:34;;;;;;;38.17;22.63;;;;;11.90;101776.00;;;;12879225;22;20280;-79
2021/09/06 05:29:35;;;;;;;37.77;22.93;;;;;12.00;101776.00;;;;12904542;22;20521;-79
2021/09/06 05:34:37;;;;;;;40.73;23.90;;;;;12.20;101783.00;;;;12877072;22;20177;-80
2021/09/06 05:39:39;;;;;;;39.40;24.33;;;;;12.50;101795.00;;;;12878366;22;20165;-79
2021/09/06 05:44:47;;;;;;;48.93;29.63;;;;;12.70;101805.00;;;;12878142;22;20231;-80
2021/09/06 05:49:49;;;;;;;38.10;26.03;;;;;13.10;101826.00;;;;12876310;22;20621;-80
2021/09/06 05:54:51;;;;;;;43.47;25.30;;;;;13.40;101837.00;;;;12899454;22;20649;-79
2021/09/06 05:59:52;;;;;;;34.60;23.40;;;;;13.60;101860.00;;;;12869998;22;20205;-78
2021/09/06 06:04:54;;;;;;;32.40;22.87;;;;;13.80;101880.00;;;;12875268;22;20264;-79
2021/09/06 06:09:56;;;;;;;34.03;23.30;;;;;14.00;101880.00;;;;12902478;22;20173;-79
2021/09/06 06:14:58;;;;;;;32.83;23.03;;;;;14.30;101891.00;;;;12851825;22;20181;-78
2021/09/06 06:19:59;;;;;;;31.87;22.87;;;;;14.50;101898.00;;;;12876023;22;20197;-79
2021/09/06 06:25:21;;;;;;;35.40;23.73;;;;;14.80;101917.00;;;;12880304;22;20193;-79
2021/09/06 06:30:30;;;;;;;33.53;23.10;;;;;15.50;101933.00;;;;12901223;22;20219;-79
2021/09/06 06:35:34;;;;;;;29.83;22.67;;;;;16.10;101935.00;;;;12897090;22;20785;-78
2021/09/06 06:40:36;;;;;;;26.65;21.63;;;;;16.70;101937.00;;;;12894295;22;20183;-79
2021/09/06 06:45:39;;;;;;;27.30;22.23;;;;;17.10;101946.00;;;;12876438;22;20193;-79
2021/09/06 06:50:41;;;;;;;29.35;21.50;;;;;17.40;101957.00;;;;12875945;22;20165;-78
2021/09/06 06:55:44;;;;;;;28.52;22.30;;;;;17.80;101954.00;;;;12899597;22;20178;-79
2021/09/06 07:00:47;;;;;;;30.58;23.17;;;;;18.10;101968.00;;;;12901540;22;20260;-79
2021/09/06 07:05:53;;;;;;;30.67;22.38;;;;;18.30;101950.00;;;;12878533;23;20313;-79
2021/09/06 07:10:57;;;;;;;28.88;23.17;;;;;18.60;101953.00;;;;12900832;22;20174;-79
2021/09/06 07:15:58;;;;;;;30.75;22.95;;;;;19.00;101962.00;;;;12874995;22;20288;-79
2021/09/06 07:20:59;;;;;;;29.23;24.13;;;;;19.20;101954.00;;;;12902648;22;20166;-79
2021/09/06 07:26:04;;;;;;;34.38;25.48;;;;;19.50;101955.00;;;;12892491;22;20198;-79
2021/09/06 07:31:05;;;;;;;33.17;24.15;;;;;19.70;101956.00;;;;12838629;22;20177;-79
2021/09/06 07:36:07;;;;;;;29.25;23.27;;;;;20.00;101957.00;;;;12871545;22;20656;-79
2021/09/06 07:41:08;;;;;;;34.80;24.08;;;;;20.20;101959.00;;;;12871184;22;20173;-79
2021/09/06 07:46:13;;;;;;;33.55;24.38;;;;;20.40;101952.00;;;;12872070;22;21007;-78
2021/09/06 07:51:15;;;;;;;26.73;22.75;;;;;20.60;101960.00;;;;12940889;22;20188;-78
2021/09/06 07:56:16;;;;;;;33.03;23.67;;;;;20.80;101965.00;;;;12869108;22;20593;-79
2021/09/06 08:01:18;;;;;;;32.47;24.15;;;;;21.20;101970.00;;;;12890878;22;20176;-79
2021/09/06 08:06:20;;;;;;;27.52;22.45;;;;;21.60;101969.00;;;;12915045;22;20602;-79
2021/09/06 08:11:21;;;;;;;31.90;24.13;;;;;21.90;101961.00;;;;12865957;22;20177;-79
2021/09/06 08:16:22;;;;;;;30.13;22.73;;;;;22.30;101963.00;;;;12868273;22;20690;-79
2021/09/06 08:21:25;;;;;;;34.22;23.15;;;;;22.70;101962.00;;;;12842406;22;20974;-80
2021/09/06 08:26:27;;;;;;;29.90;23.67;;;;;22.80;101964.00;;;;12910438;22;20200;-80
2021/09/06 08:31:30;;;;;;;33.10;24.48;;;;;23.40;101955.00;;;;12866033;22;20178;-79
2021/09/06 08:36:31;;;;;;;26.75;21.85;;;;;24.10;101951.00;;;;12887758;22;20166;-79
2021/09/06 08:41:33;;;;;;;34.92;24.58;;;;;24.40;101939.00;;;;12860582;22;20174;-79
2021/09/06 08:46:35;;;;;;;32.65;23.88;;;;;24.30;101942.00;;;;12863081;22;20692;-79
2021/09/06 08:51:41;;;;;;;28.40;22.40;;;;;24.50;101954.00;;;;12862966;22;20203;-79
2021/09/06 08:56:43;;;;;;;31.25;22.90;;;;;25.10;101944.00;;;;12883281;22;20208;-79
2021/09/06 09:01:50;;;;;;;31.98;21.27;;;;;25.60;101954.00;;;;12883038;22;20176;-79
2021/09/06 09:07:12;;;;;;;29.20;22.08;;;;;26.20;101948.00;;;;12837260;22;20200;-79
2021/09/06 09:12:31;;;;;;;30.65;23.17;;;;;26.60;101943.00;;;;12863229;22;20207;-79
2021/09/06 09:17:53;;;;;;;28.63;21.63;;;;;26.80;101942.00;;;;12889343;22;20197;-79
2021/09/06 09:23:41;;;;;;;26.25;21.77;;;;;27.20;101941.00;;;;12863216;22;20688;-79
2021/09/06 09:28:50;;;;;;;26.13;22.00;;;;;27.60;101940.00;;;;12861418;22;20181;-80
2021/09/06 09:34:21;;;;;;;25.60;20.05;;;;;28.00;101929.00;;;;12866911;22;20269;-80
2021/09/06 09:39:38;;;;;;;26.05;19.98;;;;;28.20;101932.00;;;;12865052;22;20173;-80
2021/09/06 09:44:48;;;;;;;22.55;18.83;;;;;28.20;101937.00;;;;12912465;22;20754;-81
2021/09/06 09:50:28;;;;;;;21.70;18.13;;;;;28.30;101938.00;;;;12855027;22;20224;-81
2021/09/06 09:55:32;;;;;;;22.95;17.48;;;;;28.30;101948.00;;;;12865253;22;20182;-81
2021/09/06 10:00:37;;;;;;;21.17;18.38;;;;;28.70;101943.00;;;;12866847;22;20176;-81
2021/09/06 10:05:41;;;;;;;22.58;18.45;;;;;28.80;101946.00;;;;12915079;22;20256;-81
2021/09/06 10:10:43;;;;;;;23.08;16.98;;;;;28.90;101945.00;;;;12868889;22;20174;-80
2021/09/06 10:16:01;;;;;;;19.33;15.27;;;;;29.20;101949.00;;;;12890801;22;20200;-80
2021/09/06 10:21:16;;;;;;;18.13;14.90;;;;;29.50;101946.00;;;;12891874;22;20176;-81
2021/09/06 10:26:20;;;;;;;18.17;15.18;;;;;29.60;101950.00;;;;12891162;22;20188;-81
2021/09/06 10:31:24;;;;;;;18.05;13.80;;;;;29.50;101942.00;;;;12872733;22;20173;-81
2021/09/06 10:36:25;;;;;;;15.85;13.93;;;;;29.60;101944.00;;;;12864250;23;20170;-81
2021/09/06 10:41:27;;;;;;;19.15;15.77;;;;;29.70;101939.00;;;;12863725;22;20248;-81
2021/09/06 10:46:28;;;;;;;17.15;15.32;;;;;29.50;101938.00;;;;12937142;22;20557;-81
2021/09/06 10:51:33;;;;;;;18.63;15.60;;;;;29.60;101932.00;;;;12892410;23;20493;-81
2021/09/06 10:56:35;;;;;;;18.90;15.40;;;;;29.70;101934.00;;;;12866973;22;20601;-81
2021/09/06 11:01:38;;;;;;;18.73;15.52;;;;;29.90;101929.00;;;;12840601;22;20174;-80
2021/09/06 11:06:43;;;;;;;18.98;16.30;;;;;30.20;101930.00;;;;12861983;22;20530;-81
2021/09/06 11:11:44;;;;;;;18.75;15.75;;;;;30.40;101931.00;;;;12861160;22;20170;-80
2021/09/06 11:16:46;;;;;;;18.63;15.52;;;;;30.50;101927.00;;;;12863152;22;20204;-80
2021/09/06 11:21:55;;;;;;;17.70;15.82;;;;;30.60;101924.00;;;;12872095;22;20202;-80
2021/09/06 11:26:59;;;;;;;17.67;15.75;;;;;30.70;101929.00;;;;12865206;22;20211;-80
2021/09/06 11:32:02;;;;;;;19.98;17.08;;;;;30.90;101918.00;;;;12867306;22;20169;-80
2021/09/06 11:37:07;;;;;;;20.20;16.40;;;;;31.20;101900.00;;;;12889863;22;20273;-80
2021/09/06 11:42:10;;;;;;;19.80;15.45;;;;;31.20;101910.00;;;;12891018;22;20253;-80
2021/09/06 11:47:12;;;;;;;19.00;15.95;;;;;31.10;101909.00;;;;12893916;22;20193;-80
2021/09/06 11:52:13;;;;;;;18.08;14.85;;;;;30.90;101912.00;;;;12867022;22;20170;-80
2021/09/06 11:57:23;;;;;;;15.80;13.82;;;;;30.60;101908.00;;;;12842441;22;20266;-80
2021/09/06 12:02:25;;;;;;;17.63;14.30;;;;;30.60;101908.00;;;;12894945;22;20170;-80
2021/09/06 12:07:26;;;;;;;16.20;13.13;;;;;30.50;101906.00;;;;12842898;22;20263;-80
2021/09/06 12:12:27;;;;;;;20.42;15.52;;;;;30.80;101906.00;;;;12845432;22;20173;-81
2021/09/06 12:17:34;;;;;;;15.50;12.07;;;;;31.00;101899.00;;;;12890408;22;20491;-80
2021/09/06 12:22:36;;;;;;;16.52;13.02;;;;;30.70;101911.00;;;;12891620;22;20173;-80
2021/09/06 12:27:37;;;;;;;14.20;11.90;;;;;30.70;101900.00;;;;12910261;22;20194;-80
2021/09/06 12:32:40;;;;;;;19.08;15.10;;;;;31.10;101898.00;;;;12935266;22;20176;-80
2021/09/06 12:37:43;;;;;;;14.80;12.90;;;;;31.00;101907.00;;;;12862962;22;20173;-81
2021/09/06 12:42:49;;;;;;;13.82;12.32;;;;;31.10;101902.00;;;;12936782;22;20169;-80
2021/09/06 12:47:50;;;;;;;17.42;12.57;;;;;31.00;101905.00;;;;12840226;22;20256;-80
2021/09/06 12:52:53;;;;;;;15.07;11.88;;;;;31.30;101902.00;;;;12851001;22;20185;-80
2021/09/06 12:57:55;;;;;;;16.27;12.60;;;;;31.40;101899.00;;;;12897768;22;20181;-80
2021/09/06 13:02:57;;;;;;;15.02;12.70;;;;;31.60;101899.00;;;;12871581;22;20177;-80
2021/09/06 13:08:00;;;;;;;14.95;11.85;;;;;31.80;101901.00;;;;12852941;22;20193;-80
2021/09/06 13:13:07;;;;;;;15.48;13.32;;;;;32.10;101893.00;;;;12867004;22;20522;-80
2021/09/06 13:18:08;;;;;;;15.45;12.20;;;;;32.00;101900.00;;;;12866818;22;20197;-80
2021/09/06 13:23:10;;;;;;;15.48;13.50;;;;;31.70;101899.00;;;;12866161;22;20173;-80
2021/09/06 13:28:11;;;;;;;14.32;12.85;;;;;31.70;101896.00;;;;12865667;22;20201;-80
2021/09/06 13:33:12;;;;;;;14.20;12.68;;;;;31.50;101895.00;;;;12891692;22;20188;-80
2021/09/06 13:38:13;;;;;;;13.68;12.20;;;;;31.50;101879.00;;;;12866090;22;20216;-80
2021/09/06 13:43:15;;;;;;;14.13;12.63;;;;;31.70;101887.00;;;;12889089;22;20209;-80
2021/09/06 13:48:16;;;;;;;14.48;12.90;;;;;31.60;101885.00;;;;12892095;22;20569;-80
2021/09/06 13:53:17;;;;;;;14.63;11.75;;;;;31.60;101882.00;;;;12843042;22;20179;-80
2021/09/06 13:58:18;;;;;;;15.13;11.82;;;;;31.70;101872.00;;;;12868355;22;20181;-80
2021/09/06 14:03:19;;;;;;;16.42;11.88;;;;;31.30;101874.00;;;;12891639;22;20223;-80
2021/09/06 14:08:21;;;;;;;14.95;11.82;;;;;30.70;101873.00;;;;12894438;22;20186;-80
2021/09/06 14:13:22;;;;;;;13.50;11.07;;;;;30.90;101870.00;;;;12891025;22;20179;-80
2021/09/06 14:18:37;;;;;;;14.13;12.55;;;;;31.60;101864.00;;;;12860876;22;20198;-80
2021/09/06 14:23:38;;;;;;;15.63;13.23;;;;;32.00;101870.00;;;;12888994;22;20165;-80
2021/09/06 14:28:39;;;;;;;14.65;12.13;;;;;31.90;101869.00;;;;12866436;22;20184;-80
2021/09/06 14:33:41;;;;;;;14.02;11.68;;;;;30.90;101861.00;;;;12885966;22;20173;-80
2021/09/06 14:38:43;;;;;;;15.10;12.40;;;;;30.80;101856.00;;;;12865786;22;20170;-80
2021/09/06 14:43:45;;;;;;;14.68;12.00;;;;;31.30;101860.00;;;;12911610;22;20197;-80
2021/09/06 14:48:47;;;;;;;14.15;12.43;;;;;31.10;101863.00;;;;12868482;22;20253;-80
2021/09/06 14:53:48;;;;;;;15.82;12.23;;;;;30.00;101859.00;;;;12842535;22;20224;-80
2021/09/06 14:58:50;;;;;;;13.90;12.13;;;;;30.40;101853.00;;;;12895894;22;20708;-79
2021/09/06 15:03:53;;;;;;;14.35;12.85;;;;;30.00;101846.00;;;;12915062;22;20195;-77
2021/09/06 15:08:58;;;;;;;14.23;12.48;;;;;29.50;101848.00;;;;12870446;22;20192;-80
2021/09/06 15:14:01;;;;;;;15.98;13.35;;;;;28.80;101854.00;;;;12894194;22;20192;-80
2021/09/06 15:19:02;;;;;;;17.55;13.23;;;;;28.50;101850.00;;;;12868496;22;20190;-79
2021/09/06 15:24:03;;;;;;;17.23;13.68;;;;;28.30;101852.00;;;;12868164;22;20224;-79
2021/09/06 15:29:07;;;;;;;18.60;13.05;;;;;28.10;101861.00;;;;12893513;22;20178;-79
2021/09/06 15:34:10;;;;;;;15.90;14.20;;;;;28.10;101853.00;;;;12890956;22;20180;-79
2021/09/06 15:39:12;;;;;;;14.82;12.70;;;;;27.90;101856.00;;;;12862594;22;20182;-78
2021/09/06 15:44:19;;;;;;;14.60;12.13;;;;;27.80;101841.00;;;;12890520;22;20208;-79
2021/09/06 15:49:21;;;;;;;14.82;12.25;;;;;27.80;101840.00;;;;12892154;22;20468;-80
2021/09/06 15:54:23;;;;;;;14.15;11.68;;;;;27.80;101841.00;;;;12864364;22;20256;-80
2021/09/06 15:59:24;;;;;;;16.08;12.10;;;;;27.80;101838.00;;;;12933109;22;20191;-79
2021/09/06 16:04:25;;;;;;;14.60;10.50;;;;;27.60;101838.00;;;;12863459;22;20221;-79
2021/09/06 16:09:28;;;;;;;15.88;12.35;;;;;27.40;101835.00;;;;12839392;22;20169;-79
2021/09/06 16:14:30;;;;;;;16.55;12.00;;;;;27.10;101843.00;;;;12829076;22;20182;-79
2021/09/06 16:19:31;;;;;;;14.10;11.50;;;;;26.80;101838.00;;;;12908623;22;20185;-79
2021/09/06 16:24:32;;;;;;;18.88;12.45;;;;;26.70;101843.00;;;;12887116;22;20200;-79
2021/09/06 16:29:33;;;;;;;15.35;11.55;;;;;26.50;101847.00;;;;12909691;22;20165;-80
2021/09/06 16:34:36;;;;;;;17.00;12.60;;;;;26.30;101841.00;;;;12857980;22;20256;-79
2021/09/06 16:39:39;;;;;;;18.73;12.45;;;;;26.20;101843.00;;;;12862217;22;20174;-79
2021/09/06 16:44:42;;;;;;;22.48;16.58;;;;;26.00;101838.00;;;;12933180;22;20182;-80
2021/09/06 16:49:44;;;;;;;15.88;12.25;;;;;25.80;101832.00;;;;12860532;22;20173;-79
2021/09/06 16:54:46;;;;;;;14.43;11.13;;;;;25.60;101831.00;;;;12860734;22;20169;-79
2021/09/06 16:59:47;;;;;;;16.98;12.10;;;;;25.40;101841.00;;;;12875511;22;20181;-79
2021/09/06 17:04:48;;;;;;;16.88;11.80;;;;;25.20;101832.00;;;;12914678;22;20185;-79
2021/09/06 17:09:49;;;;;;;13.57;11.50;;;;;25.10;101833.00;;;;12868401;22;20184;-79
2021/09/06 17:14:50;;;;;;;14.45;11.45;;;;;25.00;101839.00;;;;12844400;22;20613;-79
2021/09/06 17:19:55;;;;;;;16.52;11.60;;;;;24.90;101841.00;;;;12842005;22;20197;-79
2021/09/06 17:24:56;;;;;;;16.38;11.35;;;;;24.80;101839.00;;;;12885421;22;20196;-79
2021/09/06 17:29:57;;;;;;;13.88;11.68;;;;;24.50;101841.00;;;;12859363;22;20257;-79
2021/09/06 17:34:58;;;;;;;16.33;12.27;;;;;24.20;101836.00;;;;12885144;22;20614;-79
2021/09/06 17:40:00;;;;;;;23.23;13.25;;;;;24.00;101827.00;;;;12886037;22;20200;-79
2021/09/06 17:45:02;;;;;;;17.10;12.45;;;;;23.70;101831.00;;;;12868200;22;20283;-79
2021/09/06 17:50:05;;;;;;;17.33;12.52;;;;;23.40;101834.00;;;;12887272;22;20181;-78
2021/09/06 17:55:09;;;;;;;15.50;12.50;;;;;23.00;101836.00;;;;12891897;22;20205;-78
2021/09/06 18:00:12;;;;;;;18.08;13.35;;;;;22.70;101839.00;;;;12882997;23;20229;-78
2021/09/06 18:05:13;;;;;;;16.52;13.18;;;;;22.40;101832.00;;;;12890149;22;20189;-78
2021/09/06 18:10:15;;;;;;;19.98;11.82;;;;;22.20;101835.00;;;;12884815;22;20702;-78
2021/09/06 18:15:16;;;;;;;16.45;11.57;;;;;21.90;101824.00;;;;12865790;22;20184;-79
2021/09/06 18:20:17;;;;;;;18.35;11.80;;;;;21.70;101833.00;;;;12866628;22;20193;-78
2021/09/06 18:25:19;;;;;;;15.88;11.85;;;;;21.40;101837.00;;;;12885296;22;20193;-78
2021/09/06 18:30:20;;;;;;;17.63;11.75;;;;;21.10;101845.00;;;;12916711;22;20547;-79
2021/09/06 18:35:21;;;;;;;16.30;11.70;;;;;20.80;101854.00;;;;12863550;22;20173;-79
2021/09/06 18:40:22;;;;;;;15.98;12.95;;;;;20.60;101856.00;;;;12865280;22;20180;-79
2021/09/06 18:45:25;;;;;;;21.52;12.95;;;;;20.30;101863.00;;;;12864589;22;20284;-78
2021/09/06 18:50:26;;;;;;;20.23;12.90;;;;;20.20;101862.00;;;;12935751;22;20176;-79
2021/09/06 18:55:27;;;;;;;21.77;13.18;;;;;20.00;101879.00;;;;12864340;22;20911;-78
2021/09/06 19:00:30;;;;;;;17.42;12.63;;;;;19.80;101896.00;;;;12885769;22;20177;-78
2021/09/06 19:05:31;;;;;;;15.70;12.65;;;;;19.70;101904.00;;;;12912182;22;20530;-78
2021/09/06 19:10:34;;;;;;;17.02;12.60;;;;;19.40;101903.00;;;;12839602;22;21015;-79
2021/09/06 19:15:36;;;;;;;18.95;13.23;;;;;19.30;101907.00;;;;12933576;22;20170;-79
2021/09/06 19:20:37;;;;;;;18.10;13.57;;;;;19.20;101915.00;;;;12883923;22;20240;-78
2021/09/06 19:25:38;;;;;;;24.30;14.73;;;;;19.00;101921.00;;;;12883505;22;20907;-78
2021/09/06 19:30:41;;;;;;;19.65;13.68;;;;;18.90;101923.00;;;;12885173;22;20190;-78
2021/09/06 19:35:43;;;;;;;19.52;14.07;;;;;18.80;101914.00;;;;12886501;22;20200;-78
2021/09/06 19:40:47;;;;;;;19.73;13.48;;;;;18.70;101905.00;;;;12862875;22;20180;-78
2021/09/06 19:45:49;;;;;;;17.73;12.93;;;;;18.60;101903.00;;;;12937879;22;20251;-78
2021/09/06 19:50:51;;;;;;;19.88;13.82;;;;;18.50;101900.00;;;;12868075;22;20193;-78
2021/09/06 19:55:54;;;;;;;16.67;12.85;;;;;18.50;101893.00;;;;12870191;22;20174;-78
2021/09/06 20:00:56;;;;;;;19.88;13.30;;;;;18.40;101900.00;;;;12918318;22;20181;-78
2021/09/06 20:06:00;;;;;;;20.30;13.15;;;;;18.20;101899.00;;;;12858222;22;20257;-78
2021/09/06 20:11:03;;;;;;;18.25;13.40;;;;;18.10;101917.00;;;;12902719;22;20166;-78
2021/09/06 20:16:04;;;;;;;19.35;14.02;;;;;17.90;101922.00;;;;12859207;22;20204;-78
2021/09/06 20:21:06;;;;;;;23.05;14.23;;;;;17.90;101922.00;;;;12882501;22;20173;-78
2021/09/06 20:26:08;;;;;;;24.92;13.43;;;;;17.80;101919.00;;;;12859073;22;20701;-78
2021/09/06 20:31:09;;;;;;;22.15;13.85;;;;;17.60;101909.00;;;;12932553;22;20832;-78
2021/09/06 20:36:11;;;;;;;19.08;13.05;;;;;17.50;101916.00;;;;12883161;23;20205;-77
2021/09/06 20:41:15;;;;;;;20.10;13.82;;;;;17.40;101908.00;;;;12885564;22;20812;-77
2021/09/06 20:46:16;;;;;;;21.50;14.77;;;;;17.30;101919.00;;;;12884987;22;20355;-78
2021/09/06 20:51:17;;;;;;;21.30;14.18;;;;;17.30;101919.00;;;;12885270;22;20173;-77
2021/09/06 20:56:19;;;;;;;20.10;14.27;;;;;17.20;101916.00;;;;12860257;22;20184;-78
2021/09/06 21:01:20;;;;;;;19.75;14.30;;;;;17.10;101919.00;;;;12870013;22;20170;-78
2021/09/06 21:06:21;;;;;;;21.58;14.10;;;;;17.00;101919.00;;;;12871214;22;20280;-78
2021/09/06 21:11:22;;;;;;;20.20;14.82;;;;;17.00;101921.00;;;;12914938;22;20162;-78
2021/09/06 21:16:24;;;;;;;19.97;15.13;;;;;16.90;101921.00;;;;12870259;22;20189;-78
2021/09/06 21:21:27;;;;;;;20.67;14.67;;;;;16.80;101923.00;;;;12895449;22;20166;-78
2021/09/06 21:26:29;;;;;;;24.40;15.77;;;;;16.70;101921.00;;;;12895496;22;20245;-78
2021/09/06 21:31:30;;;;;;;25.50;15.77;;;;;16.70;101905.00;;;;12872066;22;20833;-79
2021/09/06 21:36:31;;;;;;;20.77;15.20;;;;;16.60;101913.00;;;;12871379;22;20170;-78
2021/09/06 21:41:32;;;;;;;24.50;15.50;;;;;16.50;101916.00;;;;12847822;22;20169;-78
2021/09/06 21:46:33;;;;;;;24.80;16.57;;;;;16.40;101902.00;;;;12945439;22;20277;-78
2021/09/06 21:51:34;;;;;;;27.37;16.57;;;;;16.30;101900.00;;;;12945760;22;20197;-78
2021/09/06 21:56:39;;;;;;;25.57;16.23;;;;;16.30;101909.00;;;;12948488;22;20162;-78
2021/09/06 22:01:40;;;;;;;23.97;16.43;;;;;16.30;101911.00;;;;12902651;22;20821;-78
2021/09/06 22:06:42;;;;;;;22.00;16.33;;;;;16.20;101923.00;;;;12879035;22;20236;-78
2021/09/06 22:11:43;;;;;;;25.23;17.40;;;;;16.10;101920.00;;;;12877567;22;20268;-78
2021/09/06 22:16:44;;;;;;;24.70;17.10;;;;;16.00;101911.00;;;;12901485;22;20263;-78
2021/09/06 22:21:50;;;;;;;26.90;17.60;;;;;16.00;101908.00;;;;12877442;22;20208;-78
2021/09/06 22:26:51;;;;;;;26.73;16.67;;;;;16.00;101903.00;;;;12876218;22;20229;-78
2021/09/06 22:31:53;;;;;;;23.57;15.60;;;;;15.90;101911.00;;;;12876045;22;20180;-78
2021/09/06 22:36:54;;;;;;;24.70;16.60;;;;;15.90;101921.00;;;;12875481;22;20185;-77
2021/09/06 22:41:55;;;;;;;24.67;16.53;;;;;15.80;101921.00;;;;12897177;22;20256;-78
2021/09/06 22:46:57;;;;;;;25.33;17.00;;;;;15.80;101912.00;;;;12871523;22;20194;-78
2021/09/06 22:51:58;;;;;;;23.50;16.40;;;;;15.70;101903.00;;;;12871095;22;20729;-78
2021/09/06 22:56:59;;;;;;;22.87;16.13;;;;;15.60;101897.00;;;;12896286;22;20169;-77
2021/09/06 23:02:02;;;;;;;23.87;17.13;;;;;15.50;101904.00;;;;12872977;22;20176;-78
2021/09/06 23:07:03;;;;;;;23.20;16.73;;;;;15.50;101901.00;;;;12917235;22;20185;-78
2021/09/06 23:12:05;;;;;;;25.10;17.43;;;;;15.50;101898.00;;;;12871879;22;20178;-78
2021/09/06 23:17:08;;;;;;;26.30;17.00;;;;;15.40;101882.00;;;;12894616;22;20305;-78
2021/09/06 23:22:10;;;;;;;26.63;16.37;;;;;15.30;101878.00;;;;12848676;22;20176;-78
2021/09/06 23:27:12;;;;;;;23.00;16.37;;;;;15.20;101878.00;;;;12897658;22;20208;-78
2021/09/06 23:32:14;;;;;;;26.70;17.70;;;;;15.20;101873.00;;;;12871643;22;20181;-78
2021/09/06 23:37:15;;;;;;;24.87;17.27;;;;;15.10;101859.00;;;;12895570;22;20177;-78
2021/09/06 23:42:16;;;;;;;27.00;17.17;;;;;15.10;101865.00;;;;12920784;22;20501;-78
2021/09/06 23:47:18;;;;;;;25.73;17.67;;;;;15.10;101856.00;;;;12870638;22;20204;-77
2021/09/06 23:52:19;;;;;;;25.77;17.03;;;;;15.00;101862.00;;;;12897033;22;20173;-78
2021/09/06 23:57:20;;;;;;;24.57;18.50;;;;;15.00;101857.00;;;;12872121;22;20193;-78
